• Join FlightAware (Why Join?)
  • Login
  • US Flag 
01:13PM EST


 

Airport Tracker/Info


-or-


 

Live Flight TrackerFlight Track Log ✈ UPS1333 ✈ 06-Jun-2014 ✈ KPBI - KSDF

Flight Track Log - Related Links

Times and Time Zones

All times are in EDT time to prevent confusion due to time zone crossing. See the UPS1333 flight status page for this flight to view local times or setup timezone preferences in your user account.

Time Position Orientation Groundspeed Altitude Reporting Facility
EDT Latitude Longitude Course Direction KTS MPH feet Rate Location/Type
10:04PM 26.6912 -80.1728 275° West 227 261 3,100  Level FlightAware ADS-B (RJTF)
10:04PM 26.6926 -80.1907 275° West 234 269 4,000 3,480 Climbing FlightAware ADS-B (RJTF)
10:04PM 26.6974 -80.2073 302° West 239 275 4,800 3,300 Climbing FlightAware ADS-B (RJTF)
10:05PM 26.7083 -80.2210 319° Northwest 250 288 5,600 2,880 Climbing FlightAware ADS-B (RJTF)
10:05PM 26.7236 -80.2336 326° Northwest 261 300 6,300 3,000 Climbing FlightAware ADS-B (RJTF)
10:05PM 26.7554 -80.2558 329° Northwest 273 314 7,900 3,180 Climbing FlightAware ADS-B (RJTF)
10:06PM 26.7714 -80.2666 329° Northwest 280 322 8,700 3,180 Climbing FlightAware ADS-B (RJTF)
10:06PM 26.7828 -80.2744 328° Northwest 285 328 9,500 3,060 Climbing FlightAware ADS-B (RJTF)
10:06PM 26.8220 -80.3013 329° Northwest 298 343 11,000 2,460 Climbing FlightAware ADS-B (RJTF)
10:07PM 26.9038 -80.3510 332° Northwest 341 392 13,200 2,340 Climbing FlightAware ADS-B (RJTF)
10:08PM 26.9649 -80.3877 332° Northwest 357 411 15,100 2,880 Climbing FlightAware ADS-B (RJTF)
10:09PM 27.0356 -80.4296 333° Northwest 370 426 17,600 2,760 Climbing FlightAware ADS-B (RJTF)
10:12PM 27.3352 -80.6075 332° Northwest 419 482 26,100 2,640 Climbing FlightAware ADS-B (KMCO)
10:13PM 27.3958 -80.6438 332° Northwest 426 490 27,600 2,400 Climbing FlightAware ADS-B (KMCO)
10:13PM 27.4759 -80.6913 332° Northwest 437 503 29,300 2,520 Climbing FlightAware ADS-B (KMCO)
10:14PM 27.5802 -80.7529 332° Northwest 430 495 32,000 2,700 Climbing FlightAware ADS-B (KMCO)
10:15PM 27.6525 -80.7959 332° Northwest 427 491 33,800 2,640 Climbing FlightAware ADS-B (KMCO)
10:16PM 27.7229 -80.8375 332° Northwest 417 480 35,600 2,580 Climbing FlightAware ADS-B (KMCO)
10:16PM 27.7881 -80.8761 332° Northwest 411 473 37,200 2,100 Climbing FlightAware ADS-B (KMCO)
10:17PM 27.8523 -80.9150 332° Northwest 409 471 38,400 1,500 Climbing FlightAware ADS-B (KMCO)
10:18PM 27.9149 -80.9530 332° Northwest 408 470 39,100 1,140 Climbing FlightAware ADS-B (KSFB)
10:18PM 27.9629 -80.9822 332° Northwest 407 468 39,700 1,080 Climbing FlightAware ADS-B (KSFB)
10:19PM 28.0117 -81.0119 332° Northwest 413 475 40,200 960 Climbing FlightAware ADS-B (KSFB)
10:19PM 28.0895 -81.0593 332° Northwest 417 480 40,900 900 Climbing FlightAware ADS-B (KMCO)
10:20PM 28.0996 -81.0655 332° Northwest 418 481 41,000 120 Climbing FlightAware ADS-B (KSFB)
10:20PM 28.1697 -81.1022 338° Northwest 417 480 41,000  Level FlightAware ADS-B (KSFB)
10:21PM 28.2278 -81.1260 341° North 417 480 41,000  Level FlightAware ADS-B (KMCO)
10:21PM 28.2956 -81.1508 342° North 416 479 41,000  Level FlightAware ADS-B (KSFB)
10:22PM 28.3465 -81.1690 342° North 415 478 41,000  Level FlightAware ADS-B (KSFB)
10:22PM 28.4067 -81.1908 342° North 413 475 41,000  Level FlightAware ADS-B (KSFB)
10:23PM 28.4626 -81.2117 342° North 412 474 41,000  Level FlightAware ADS-B (KSFB)
10:23PM 28.5250 -81.2358 341° North 412 474 41,000  Level FlightAware ADS-B (KMCO)
10:24PM 28.5894 -81.2610 341° North 411 473 41,000  Level FlightAware ADS-B (KSFB)
10:25PM 28.6579 -81.2878 341° North 410 472 41,000  Level FlightAware ADS-B (KSFB)
10:25PM 28.7120 -81.3089 341° North 410 472 41,000  Level FlightAware ADS-B (KSFB)
10:26PM 28.7619 -81.3281 341° North 410 472 41,000  Level FlightAware ADS-B (KSFB)
10:26PM 28.8249 -81.3519 342° North 411 473 41,000  Level FlightAware ADS-B (KSFB)
10:27PM 28.8090 -81.3459 330° Northwest 418 481 41,000  Level FlightAware ADS-B (KSFB)
10:27PM 28.9138 -81.4044 327° Northwest 422 486 41,000  Level FlightAware ADS-B (KSFB)
10:28PM 28.9727 -81.4487 327° Northwest 422 486 41,000  Level FlightAware ADS-B (KSFB)
10:28PM 29.0397 -81.4987 327° Northwest 422 486 41,000  Level FlightAware ADS-B (KSFB)
10:29PM 29.1142 -81.5535 325° Northwest 424 488 41,000  Level FlightAware ADS-B (KMCO)
10:29PM 29.1422 -81.5823 312° West 428 493 41,000  Level FlightAware ADS-B (KMCO)
10:30PM 29.1855 -81.6601 294° West 435 501 41,000  Level FlightAware ADS-B (KMCO)
10:31PM 29.2113 -81.7437 290° West 438 504 41,000  Level FlightAware ADS-B (KMCO)
10:31PM 29.2410 -81.8340 291° West 438 504 41,000  Level FlightAware ADS-B (KMCO)
10:32PM 29.2706 -81.9177 292° West 439 505 41,000  Level FlightAware ADS-B (KMCO)
10:33PM 29.3018 -82.0051 292° West 439 505 41,000  Level FlightAware ADS-B (KMCO)
10:33PM 29.3322 -82.0916 292° West 439 505 41,000  Level FlightAware ADS-B (KMCO)
10:34PM 29.3631 -82.1803 292° West 438 504 41,000  Level FlightAware ADS-B (KMCO)
10:35PM 29.3929 -82.2664 292° West 438 504 41,000  Level FlightAware ADS-B (KMCO)
10:35PM 29.4223 -82.3516 292° West 437 503 41,000  Level FlightAware ADS-B (KMCO)
10:36PM 29.4512 -82.4352 292° West 434 499 41,000  Level FlightAware ADS-B (KMCO)
10:37PM 29.4803 -82.5198 292° West 434 499 41,000  Level FlightAware ADS-B (KMCO)
10:37PM 29.5109 -82.6093 291° West 433 498 41,000  Level FlightAware ADS-B (KMCO)
10:38PM 29.5361 -82.6834 291° West 434 499 41,000  Level FlightAware ADS-B (KMCO)
10:39PM 29.5664 -82.7725 291° West 433 498 41,000  Level Miami Center
10:40PM 29.6100 -82.9017 291° West 432 497 41,000  Level Miami Center
10:41PM 29.6492 -83.0194 291° West 433 498 41,000  Level Miami Center
10:42PM 29.6911 -83.1447 291° West 437 503 41,000  Level Miami Center
10:48PM 29.9611 -83.9476 291° West 442 509 41,000 -120 Level FlightAware ADS-B (KTLH)
10:48PM 29.9904 -84.0372 291° West 448 516 40,400 -780 Descending FlightAware ADS-B (KTLH)
10:49PM 30.0198 -84.1272 291° West 445 512 40,000 -360 Descending FlightAware ADS-B (KTLH)
10:50PM 30.0398 -84.1888 291° West 440 506 40,000  Level FlightAware ADS-B (KTLH)
10:51PM 30.0924 -84.3502 291° West 443 510 40,000  Level FlightAware ADS-B (KTLH)
10:51PM 30.1191 -84.4314 291° West 449 517 40,000  Level FlightAware ADS-B
10:52PM 30.1199 -84.4341 291° West 451 519 40,000  Level FlightAware ADS-B (KTLH)
10:52PM 30.1347 -84.4791 281° West 459 528 40,000  Level FlightAware ADS-B
10:53PM 30.1678 -84.6291 282° West 460 529 40,000  Level FlightAware ADS-B
10:54PM 30.1890 -84.7433 282° West 455 524 40,000  Level FlightAware ADS-B
10:54PM 30.2098 -84.8498 285° West 448 516 40,000  Level FlightAware ADS-B
10:55PM 30.2317 -84.9312 288° West 447 514 40,000  Level FlightAware ADS-B
10:55PM 30.2504 -84.9995 287° West 446 513 40,000  Level FlightAware ADS-B
10:56PM 30.2746 -85.0907 287° West 440 506 40,000  Level FlightAware ADS-B
10:57PM 30.2921 -85.1586 286° West 438 504 40,000  Level FlightAware ADS-B
10:57PM 30.3149 -85.2478 287° West 436 502 40,000  Level FlightAware ADS-B
11:02PM 30.4922 -85.8242 294° West 444 511 40,000  Level FlightAware ADS-B (KHRT)
11:03PM 30.5304 -85.9215 295° West 446 513 40,000  Level FlightAware ADS-B (KHRT)
11:04PM 30.5882 -86.0631 296° West 454 522 40,000  Level FlightAware ADS-B (KHRT)
11:05PM 30.6782 -86.1889 329° Northwest 450 518 40,000  Level FlightAware ADS-B (KHRT)
11:05PM 30.7683 -86.2407 339° North 451 519 40,000  Level FlightAware ADS-B (KHRT)
11:06PM 30.8500 -86.2726 349° North 449 517 40,000  Level FlightAware ADS-B (KHRT)
11:07PM 30.9026 -86.2807 North 447 514 40,000  Level FlightAware ADS-B (KHRT)
11:07PM 30.9741 -86.2661 21° North 443 510 40,000  Level FlightAware ADS-B (KHRT)
11:08PM 31.0908 -86.2161 21° North 418 481 40,000  Level Atlanta Center
11:09PM 31.2044 -86.1631 22° Northeast 423 487 40,000  Level Atlanta Center
11:10PM 31.3183 -86.1072 23° Northeast 434 499 40,000  Level Atlanta Center
11:11PM 31.4358 -86.0564 20° North 434 499 40,000  Level Atlanta Center
11:12PM 31.5494 -86.0031 22° Northeast 434 499 40,000  Level Atlanta Center
11:13PM 31.6608 -85.9492 22° Northeast 434 499 40,000  Level Atlanta Center
11:14PM 31.7764 -85.9003 20° North 434 499 40,000 300 Level Atlanta Center
11:15PM 31.8919 -85.8489 21° North 434 499 40,700 480 Climbing Atlanta Center
11:16PM 31.9992 -85.7947 23° Northeast 429 494 41,000 120 Climbing Atlanta Center
11:17PM 32.1169 -85.7358 23° Northeast 435 501 41,000  Level Atlanta Center
11:18PM 32.2367 -85.6817 21° North 441 507 41,000  Level Atlanta Center
11:19PM 32.3542 -85.6272 21° North 446 513 41,000  Level Atlanta Center
11:20PM 32.4761 -85.5703 21° North 456 525 41,000  Level Atlanta Center
11:21PM 32.5956 -85.5133 22° Northeast 465 535 41,000  Level Atlanta Center
11:22PM 32.7069 -85.4633 21° North 470 541 41,000  Level Atlanta Center
11:23PM 32.8308 -85.4033 22° Northeast 470 541 41,000  Level Atlanta Center
11:24PM 32.9503 -85.3483 21° North 470 541 41,000  Level Atlanta Center
11:25PM 33.0719 -85.2956 20° North 470 541 41,000  Level Atlanta Center
11:26PM 33.1936 -85.2353 23° Northeast 470 541 41,000  Level Atlanta Center
11:27PM 33.3131 -85.1797 21° North 470 541 41,000  Level Atlanta Center
11:28PM 33.4367 -85.1242 21° North 470 541 41,000  Level Atlanta Center
11:29PM 33.5664 -85.1058 North 460 529 41,000  Level Atlanta Center
11:30PM 33.6978 -85.1025 North 465 535 41,000  Level Atlanta Center
11:31PM 33.8397 -85.0967 North 465 535 41,000  Level Atlanta Center
11:32PM 33.9692 -85.0933 North 459 528 41,000  Level Atlanta Center
11:33PM 34.0967 -85.0900 North 459 528 41,000  Level Atlanta Center
11:34PM 34.2239 -85.0864 North 459 528 41,000  Level Atlanta Center
11:35PM 34.3514 -85.0781 North 459 528 41,000  Level Atlanta Center
11:36PM 34.4445 -85.0698 North 442 509 41,000  Level FlightAware ADS-B (KMDQ)
11:37PM 34.6039 -85.0683 North 459 528 41,000  Level Atlanta Center
11:38PM 34.7125 -85.0622 North 452 520 41,000 -840 Level Atlanta Center
11:44PM 35.4523 -85.0333 North 415 478 35,400 -960 Descending FlightAware ADS-B (KMDQ)
11:45PM 35.5600 -85.0319 North 418 481 34,500 -900 Descending Atlanta Center
11:46PM 35.6725 -85.0281 North 412 474 33,500 -720 Descending Atlanta Center
11:52PM 36.2785 -85.0028 North 360 414 30,000 -540 Descending FlightAware ADS-B
11:53PM 36.3828 -84.9989 North 358 412 30,000 -360 Level FlightAware ADS-B
11:54PM 36.4837 -84.9949 North 351 404 29,300 -900 Descending FlightAware ADS-B
11:54PM 36.5344 -84.9929 North 343 395 28,400 -1,500 Descending FlightAware ADS-B
11:56PM 36.6793 -84.9885 North 340 391 26,300 -1,740 Descending FlightAware ADS-B
11:57PM 36.7699 -84.9855 North 342 394 24,600 -1,740 Descending FlightAware ADS-B
11:58PM 36.8696 -84.9822 North 341 392 22,900 -1,560 Descending FlightAware ADS-B
11:59PM 36.9623 -84.9790 North 329 379 21,500 -1,320 Descending FlightAware ADS-B
12:00AM 37.0525 -84.9758 North 314 361 20,300 -1,380 Descending FlightAware ADS-B
12:02AM 37.2586 -84.9681 North 293 337 16,900 -1,380 Descending FlightAware ADS-B
12:04AM 37.4263 -84.9618 North 295 339 14,400 -1,200 Descending FlightAware ADS-B
12:05AM 37.5063 -84.9589 North 284 327 13,300 -1,380 Descending FlightAware ADS-B
12:07AM 37.6647 -84.9692 325° Northwest 287 330 10,400 -1,500 Descending FlightAware ADS-B
12:08AM 37.7152 -85.0475 299° West 283 326 8,900 -1,260 Descending FlightAware ADS-B
12:09AM 37.7575 -85.1424 299° West 283 326 7,800 -1,020 Descending FlightAware ADS-B
12:10AM 37.7944 -85.2298 297° West 284 327 6,800 -1,020 Descending FlightAware ADS-B
12:11AM 37.8290 -85.3155 297° West 272 313 5,800 -1,020 Descending FlightAware ADS-B
12:12AM 37.8662 -85.4032 298° West 270 311 4,800 -1,020 Descending FlightAware ADS-B
12:13AM 37.9021 -85.4880 298° West 268 308 3,800 -840 Descending FlightAware ADS-B
12:14AM 37.9203 -85.5703 266° West 225 259 3,200 -420 Descending FlightAware ADS-B
12:15AM 37.9387 -85.6397 328° Northwest 212 244 3,000 -120 Descending FlightAware ADS-B
12:16AM 37.9908 -85.6650 348° North 188 216 3,000 -60 Level FlightAware ADS-B
12:17AM 38.0418 -85.6818 345° North 171 197 2,900 -540 Descending FlightAware ADS-B
12:18AM 38.0870 -85.6972 345° North 158 182 2,000 -840 Descending FlightAware ADS-B
12:19AM 38.1197 -85.7085 345° North 122 140 1,300 16,740 Descending FlightAware ADS-B
12:20AM 38.1333 -85.7167 335° Northwest 188 216 33,300 34,860 Climbing FlightAware ADS-B
12:28AM 38.1667 -85.7333 208° Southwest  Level FlightAware Approximate